Time;durP1;ratioP1;P1;durP2;ratioP2;P2;SDS_P1;SDS_P2;PMS_P1;PMS_P2;Temp;Humidity;BMP_temperature;BMP_pressure;BME280_temperature;BME280_humidity;BME280_pressure;Samples;Min_cycle;Max_cycle;Signal;HPM_P1;HPM_P2
2021/12/20 00:01:00;;;;;;;15.48;3.17;;;;;;;5.93;76.86;102982.63;5006195;28;20117;-63
2021/12/20 00:03:25;;;;;;;20.73;2.47;;;;;;;5.92;77.06;102988.69;5006698;28;20527;-62
2021/12/20 00:05:51;;;;;;;21.77;4.63;;;;;;;5.88;77.31;102981.63;4986409;28;20034;-62
2021/12/20 00:08:16;;;;;;;11.80;2.30;;;;;;;5.95;76.90;102978.28;4969208;28;20084;-63
2021/12/20 00:10:42;;;;;;;17.27;2.85;;;;;;;5.96;76.51;102977.41;4986869;28;20408;-63
2021/12/20 00:13:07;;;;;;;11.43;1.98;;;;;;;5.97;75.99;102970.47;4987357;28;20431;-64
2021/12/20 00:15:32;;;;;;;16.45;1.98;;;;;;;6.03;75.67;102981.06;4988007;28;20033;-64
2021/12/20 00:17:58;;;;;;;12.82;2.08;;;;;;;6.05;75.26;102977.63;4994486;28;20057;-63
2021/12/20 00:20:23;;;;;;;17.40;1.92;;;;;;;6.03;75.73;102968.84;5007643;28;20029;-62
2021/12/20 00:22:49;;;;;;;23.27;2.38;;;;;;;6.03;75.66;102975.81;5006405;28;20022;-63
2021/12/20 00:25:14;;;;;;;12.90;2.92;;;;;;;5.96;76.11;102973.94;5005807;28;20034;-62
2021/12/20 00:27:39;;;;;;;21.45;3.45;;;;;;;5.96;75.37;102977.41;5007765;28;20033;-64
2021/12/20 00:30:09;;;;;;;17.05;2.58;;;;;;;5.93;75.09;102980.00;4988206;28;20018;-64
2021/12/20 00:32:35;;;;;;;19.75;2.53;;;;;;;5.88;75.53;102971.16;5007220;28;20468;-63
2021/12/20 00:35:00;;;;;;;23.02;3.03;;;;;;;5.93;75.01;102964.28;5007278;28;20039;-63
2021/12/20 00:40:22;;;;;;;14.75;2.63;;;;;;;5.87;75.20;102961.56;5007610;28;20049;-62
2021/12/20 00:42:59;;;;;;;21.45;3.88;;;;;;;5.86;74.82;102960.66;5007196;28;20030;-62
2021/12/20 00:45:27;;;;;;;19.60;2.85;;;;;;;5.77;74.87;102971.81;4990579;28;20030;-62
2021/12/20 00:47:52;;;;;;;18.67;2.58;;;;;;;5.74;75.12;102969.13;5006883;28;20036;-63
2021/12/20 00:50:18;;;;;;;22.23;2.75;;;;;;;5.74;74.72;102953.44;5005999;28;20025;-64
2021/12/20 00:52:44;;;;;;;23.60;3.00;;;;;;;5.80;74.74;102960.53;4989341;28;20032;-63
2021/12/20 00:55:12;;;;;;;18.25;2.20;;;;;;;5.80;74.86;102956.19;5007545;28;20032;-62
2021/12/20 00:57:37;;;;;;;18.92;3.78;;;;;;;5.78;75.14;102944.78;5007024;28;20133;-64
2021/12/20 01:00:05;;;;;;;24.10;3.63;;;;;;;5.77;75.09;102947.38;4989403;28;20034;-64
2021/12/20 01:02:31;;;;;;;24.48;4.68;;;;;;;5.76;75.09;102962.22;5007133;28;20018;-63
2021/12/20 01:04:56;;;;;;;28.13;4.95;;;;;;;5.72;74.93;102955.13;4989345;28;20033;-62
2021/12/20 01:07:21;;;;;;;33.30;4.53;;;;;;;5.72;74.99;102962.97;5006533;28;20029;-62
2021/12/20 01:09:47;;;;;;;22.58;4.75;;;;;;;5.74;74.90;102952.56;5014768;28;20040;-62
2021/12/20 01:12:19;;;;;;;28.52;4.05;;;;;;;5.74;74.55;102945.59;5030769;28;20045;-63
2021/12/20 01:14:44;;;;;;;23.00;3.17;;;;;;;5.75;74.45;102944.72;5011641;28;20030;-63
2021/12/20 01:17:10;;;;;;;18.20;3.40;;;;;;;5.75;74.23;102944.72;5016760;28;20058;-62
2021/12/20 01:19:37;;;;;;;27.30;4.03;;;;;;;5.80;73.65;102943.09;5001668;28;20088;-63
2021/12/20 01:22:03;;;;;;;25.17;4.25;;;;;;;5.80;72.99;102948.34;4971387;28;20370;-63
2021/12/20 01:24:28;;;;;;;17.58;3.60;;;;;;;5.74;73.00;102939.47;5007136;28;20036;-63
2021/12/20 01:26:54;;;;;;;23.33;4.35;;;;;;;5.71;73.40;102939.41;5010290;28;20468;-63
2021/12/20 01:29:19;;;;;;;27.60;4.88;;;;;;;5.71;73.64;102948.16;5010375;28;20030;-63
2021/12/20 01:31:45;;;;;;;24.13;6.32;;;;;;;5.79;73.19;102943.97;4976396;28;20014;-64
2021/12/20 01:34:10;;;;;;;39.72;8.93;;;;;;;5.80;73.01;102948.34;4992866;28;20014;-63
2021/12/20 01:36:35;;;;;;;35.42;6.38;;;;;;;5.76;73.26;102943.00;5010290;28;20057;-62
2021/12/20 01:39:01;;;;;;;26.55;5.68;;;;;;;5.76;72.74;102951.75;5009028;28;20380;-62
2021/12/20 01:41:26;;;;;;;29.67;5.90;;;;;;;5.80;72.56;102948.34;5009333;28;20056;-63
2021/12/20 01:43:53;;;;;;;21.50;4.22;;;;;;;5.81;72.20;102941.38;5010050;28;20081;-63
2021/12/20 01:46:19;;;;;;;28.08;4.05;;;;;;;5.75;72.66;102942.13;5008969;28;20049;-62
2021/12/20 01:48:45;;;;;;;23.80;3.17;;;;;;;5.73;72.48;102950.78;5009896;28;20026;-64
2021/12/20 01:53:40;;;;;;;16.80;3.55;;;;;;;5.74;72.43;102945.59;5027954;28;20041;-64
2021/12/20 01:56:06;;;;;;;24.70;3.22;;;;;;;5.74;72.62;102947.31;5011345;28;20159;-63
2021/12/20 01:58:32;;;;;;;24.35;2.70;;;;;;;5.79;71.88;102951.81;5029546;28;20033;-62
2021/12/20 02:03:46;;;;;;;21.83;3.15;;;;;;;5.76;72.10;102951.75;5029556;28;20190;-62
2021/12/20 02:06:21;;;;;;;22.60;3.38;;;;;;;5.73;72.34;102940.34;5029890;28;20179;-63
2021/12/20 02:08:46;;;;;;;24.70;2.85;;;;;;;5.68;72.83;102942.84;5028406;28;20025;-62
2021/12/20 02:11:12;;;;;;;25.42;2.60;;;;;;;5.71;72.82;102942.03;5029673;28;20025;-63
2021/12/20 02:13:39;;;;;;;18.60;3.00;;;;;;;5.72;72.81;102949.03;5017481;28;20057;-64
2021/12/20 02:16:05;;;;;;;14.30;2.45;;;;;;;5.67;73.18;102941.09;5009004;28;20030;-64
2021/12/20 02:18:32;;;;;;;24.10;3.08;;;;;;;5.60;72.84;102937.44;4990729;28;20026;-61
2021/12/20 02:20:58;;;;;;;21.20;3.30;;;;;;;5.59;69.87;102943.53;5009137;28;20381;-62
2021/12/20 02:23:23;;;;;;;24.75;3.25;;;;;;;5.57;69.53;102938.28;5008844;28;20033;-62
2021/12/20 02:25:49;;;;;;;23.83;3.00;;;;;;;5.57;70.29;102937.41;5009187;28;20029;-62
2021/12/20 02:28:17;;;;;;;14.43;2.70;;;;;;;5.60;70.84;102928.75;4991682;28;20053;-62
2021/12/20 02:36:49;;;;;;;28.60;4.28;;;;;;;5.59;70.96;102933.09;5009600;28;20033;-62
2021/12/20 02:38:45;;;;;;;26.30;3.03;;;;;;;5.57;71.24;102925.19;5026902;28;20072;-62
2021/12/20 02:41:16;;;;;;;21.55;2.65;;;;;;;5.62;70.11;102942.72;5027637;28;20075;-64
2021/12/20 02:43:50;;;;;;;25.95;2.90;;;;;;;5.58;70.47;102928.72;5010022;28;20464;-63
2021/12/20 02:49:03;;;;;;;19.45;3.53;;;;;;;5.62;70.08;102921.78;5011517;28;20583;-63
2021/12/20 02:51:29;;;;;;;28.15;3.20;;;;;;;5.68;70.15;102927.16;5010866;28;20107;-63
2021/12/20 02:53:55;;;;;;;27.52;2.90;;;;;;;5.71;70.13;102921.09;5015507;28;20038;-64
2021/12/20 02:56:21;;;;;;;22.98;3.00;;;;;;;5.74;70.18;102927.28;4991085;28;20105;-63
2021/12/20 02:58:46;;;;;;;23.83;3.40;;;;;;;5.69;70.24;102918.47;5007568;28;20117;-63
2021/12/20 03:01:12;;;;;;;22.23;3.50;;;;;;;5.67;70.83;102928.91;5009185;28;20461;-63
2021/12/20 03:03:37;;;;;;;15.07;2.97;;;;;;;5.65;70.70;102921.84;5008682;28;20457;-63
2021/12/20 03:06:18;;;;;;;21.67;3.45;;;;;;;5.65;70.55;102920.13;5008300;28;20034;-62
2021/12/20 03:08:45;;;;;;;27.63;3.42;;;;;;;5.64;70.47;102921.00;5008181;28;20479;-62
2021/12/20 03:11:11;;;;;;;17.70;2.58;;;;;;;5.58;69.94;102915.63;5009076;28;20034;-62
2021/12/20 03:13:37;;;;;;;25.95;2.88;;;;;;;5.56;69.19;102918.22;4978628;28;20559;-62
2021/12/20 03:16:03;;;;;;;15.15;2.53;;;;;;;5.59;69.34;102921.72;5008327;28;20473;-63
2021/12/20 03:18:28;;;;;;;20.67;3.33;;;;;;;5.60;70.00;102927.00;5007466;28;20169;-62
2021/12/20 03:20:54;;;;;;;22.85;2.97;;;;;;;5.54;70.33;102925.13;5008112;28;20136;-62
2021/12/20 03:23:21;;;;;;;18.38;2.38;;;;;;;5.49;70.89;102925.91;5007664;28;20114;-62
2021/12/20 03:25:46;;;;;;;25.58;3.30;;;;;;;5.44;70.87;102918.84;5008219;28;20054;-61
2021/12/20 03:28:11;;;;;;;19.98;3.20;;;;;;;5.47;71.05;102917.13;5008696;28;20061;-63
2021/12/20 03:30:37;;;;;;;17.77;2.65;;;;;;;5.48;70.72;102919.78;5008176;28;20444;-62
2021/12/20 03:33:02;;;;;;;20.90;2.55;;;;;;;5.43;70.77;102924.03;5007786;28;20103;-61
2021/12/20 03:35:27;;;;;;;17.77;3.20;;;;;;;5.41;70.91;102920.50;5008040;28;20388;-63
2021/12/20 03:37:53;;;;;;;25.08;3.22;;;;;;;5.43;70.63;102918.81;5006026;28;20033;-63
2021/12/20 03:40:18;;;;;;;22.90;3.40;;;;;;;5.43;70.58;102922.31;5008152;28;20029;-62
2021/12/20 03:42:45;;;;;;;25.05;2.90;;;;;;;5.47;70.60;102911.88;5007421;28;20034;-63
2021/12/20 03:45:13;;;;;;;29.17;3.90;;;;;;;5.48;70.25;102911.94;5008408;28;20018;-62
2021/12/20 03:47:39;;;;;;;20.48;2.55;;;;;;;5.50;70.06;102915.47;5008283;28;20445;-62
2021/12/20 03:50:05;;;;;;;24.48;3.47;;;;;;;5.51;70.04;102912.00;5007583;28;20025;-63
2021/12/20 03:52:31;;;;;;;20.92;2.72;;;;;;;5.54;70.24;102912.06;5007227;28;20389;-63
2021/12/20 03:54:56;;;;;;;27.63;3.63;;;;;;;5.54;70.02;102904.22;5007597;28;20022;-63
2021/12/20 03:57:21;;;;;;;21.98;3.30;;;;;;;5.59;70.01;102912.16;5007781;28;20053;-62
2021/12/20 03:59:48;;;;;;;12.50;2.92;;;;;;;5.56;69.98;102918.22;4988951;28;20029;-62
2021/12/20 04:02:17;;;;;;;17.02;2.78;;;;;;;5.52;70.40;102916.41;4988097;28;20038;-62
2021/12/20 04:04:43;;;;;;;16.45;3.22;;;;;;;5.47;70.92;102910.16;4987947;28;20101;-63
2021/12/20 04:07:08;;;;;;;18.35;2.55;;;;;;;5.49;70.70;102910.19;4987260;28;20038;-62
2021/12/20 04:09:33;;;;;;;22.95;3.15;;;;;;;5.52;70.82;102921.63;4988045;28;20042;-62
2021/12/20 04:11:59;;;;;;;22.73;3.08;;;;;;;5.54;70.89;102919.03;4992937;28;20084;-62
2021/12/20 04:14:24;;;;;;;23.60;3.90;;;;;;;5.47;70.98;102912.78;5007701;28;20172;-62
2021/12/20 04:16:49;;;;;;;22.45;3.03;;;;;;;5.48;70.99;102919.78;5007419;28;20515;-62
2021/12/20 04:19:15;;;;;;;14.30;2.45;;;;;;;5.50;71.02;102914.56;5005933;28;20380;-61
2021/12/20 04:21:40;;;;;;;16.92;2.85;;;;;;;5.48;71.07;102914.53;5007352;28;20476;-62
2021/12/20 04:24:05;;;;;;;28.15;3.28;;;;;;;5.50;71.08;102914.56;5006437;28;20034;-66
2021/12/20 04:26:31;;;;;;;21.02;2.78;;;;;;;5.51;71.11;102914.59;5007658;28;20487;-62
2021/12/20 04:28:56;;;;;;;21.50;3.05;;;;;;;5.51;71.26;102917.22;5007298;28;20018;-61
2021/12/20 04:31:22;;;;;;;23.58;3.22;;;;;;;5.51;70.99;102909.38;5007579;28;20052;-61
2021/12/20 04:33:47;;;;;;;23.80;2.92;;;;;;;5.54;71.09;102912.06;5007243;28;20028;-61
2021/12/20 04:36:13;;;;;;;26.75;4.15;;;;;;;5.51;71.17;102914.59;5007533;28;20069;-62
2021/12/20 04:38:39;;;;;;;22.13;2.78;;;;;;;5.46;71.32;102915.38;5006799;28;20052;-61
2021/12/20 04:41:04;;;;;;;24.63;3.33;;;;;;;5.42;71.45;102919.66;4995231;28;20063;-61
2021/12/20 04:43:30;;;;;;;29.58;3.60;;;;;;;5.39;71.70;102904.78;5009166;28;20025;-62
2021/12/20 04:45:55;;;;;;;21.00;2.78;;;;;;;5.48;71.42;102909.31;5028718;28;20060;-62
2021/12/20 04:48:20;;;;;;;28.38;3.80;;;;;;;5.47;71.54;102918.00;5013031;28;20041;-61
2021/12/20 04:50:46;;;;;;;22.33;3.00;;;;;;;5.47;71.47;102914.50;5029977;28;20130;-61
2021/12/20 04:53:11;;;;;;;18.60;3.17;;;;;;;5.41;71.69;102913.53;5029790;28;20453;-61
2021/12/20 04:55:37;;;;;;;22.75;2.85;;;;;;;5.41;71.54;102915.25;5030919;28;20040;-62
2021/12/20 04:58:05;;;;;;;19.83;2.90;;;;;;;5.44;71.69;102916.22;5030619;28;20068;-62
2021/12/20 05:00:33;;;;;;;21.23;2.97;;;;;;;5.51;71.62;102914.59;5030568;28;20383;-63
2021/12/20 05:02:59;;;;;;;24.10;2.88;;;;;;;5.51;71.58;102913.75;5030434;28;20509;-62
2021/12/20 05:05:24;;;;;;;25.38;4.88;;;;;;;5.51;71.88;102913.75;5010328;28;20057;-62
2021/12/20 05:07:50;;;;;;;23.05;2.97;;;;;;;5.56;71.45;102910.38;5009054;28;20041;-63
2021/12/20 05:10:26;;;;;;;19.05;2.70;;;;;;;5.56;71.59;102907.75;4989847;28;20527;-62
2021/12/20 05:12:55;;;;;;;22.48;2.75;;;;;;;5.56;71.50;102912.97;4990761;28;20062;-62
2021/12/20 05:15:21;;;;;;;13.98;2.60;;;;;;;5.51;71.92;102924.19;5009301;28;20084;-62
2021/12/20 05:17:46;;;;;;;16.65;2.55;;;;;;;5.48;71.67;102919.78;5010422;28;20064;-61
2021/12/20 05:20:12;;;;;;;20.00;3.03;;;;;;;5.46;71.50;102913.66;4992448;28;20113;-62
2021/12/20 05:22:38;;;;;;;19.45;2.30;;;;;;;5.48;71.78;102919.78;4990446;28;20042;-63
2021/12/20 05:25:03;;;;;;;20.40;4.53;;;;;;;5.51;71.50;102919.84;4990885;28;20235;-62
2021/12/20 05:27:29;;;;;;;24.65;3.25;;;;;;;5.51;71.65;102922.44;5007607;28;20476;-64
2021/12/20 05:29:54;;;;;;;26.23;4.18;;;;;;;5.50;71.61;102925.94;5009663;28;20380;-61
2021/12/20 05:32:20;;;;;;;19.35;3.22;;;;;;;5.52;71.78;102926.84;4992125;28;20460;-64
2021/12/20 05:34:45;;;;;;;21.33;3.33;;;;;;;5.45;71.87;102927.56;5010012;28;20034;-63
2021/12/20 05:37:13;;;;;;;25.48;3.33;;;;;;;5.46;71.42;102929.34;5020906;28;20033;-63
2021/12/20 05:39:39;;;;;;;25.20;3.97;;;;;;;5.46;71.35;102928.44;5026450;28;20488;-63
2021/12/20 05:42:04;;;;;;;28.98;3.10;;;;;;;5.43;71.35;102929.25;5009666;28;20068;-62
2021/12/20 05:44:29;;;;;;;26.52;3.75;;;;;;;5.42;71.22;102925.75;5009903;28;20121;-64
2021/12/20 05:46:55;;;;;;;18.65;3.42;;;;;;;5.41;70.92;102930.94;5009736;28;20058;-63
2021/12/20 05:49:20;;;;;;;41.70;5.00;;;;;;;5.41;71.22;102928.34;4997840;28;20038;-61
2021/12/20 05:51:45;;;;;;;24.35;3.58;;;;;;;5.34;70.53;102934.28;4989466;28;20378;-62
2021/12/20 05:54:11;;;;;;;24.67;3.10;;;;;;;5.27;70.56;102936.75;4990851;28;20461;-63
2021/12/20 05:56:36;;;;;;;21.17;3.53;;;;;;;5.26;69.93;102923.66;4989546;28;20034;-63
2021/12/20 05:59:01;;;;;;;15.07;2.25;;;;;;;5.32;69.45;102929.03;4989965;28;20037;-62
2021/12/20 06:01:27;;;;;;;19.08;2.90;;;;;;;5.28;69.67;102933.31;4990283;28;20030;-63
2021/12/20 06:03:52;;;;;;;17.05;2.63;;;;;;;5.30;69.33;102931.59;4989584;28;20058;-62
2021/12/20 06:06:17;;;;;;;18.17;2.92;;;;;;;5.26;69.59;102929.78;4989512;28;20026;-62
2021/12/20 06:08:43;;;;;;;27.92;4.03;;;;;;;5.24;69.19;102934.06;4990477;28;20034;-63
2021/12/20 06:11:08;;;;;;;18.95;2.58;;;;;;;5.33;67.66;102938.66;4997172;28;20097;-63
2021/12/20 06:13:34;;;;;;;20.08;2.22;;;;;;;5.31;67.59;102938.63;5007260;28;20092;-62
2021/12/20 06:15:59;;;;;;;13.98;2.50;;;;;;;5.29;68.09;102942.91;4989619;28;20026;-61
2021/12/20 06:18:24;;;;;;;12.93;2.08;;;;;;;5.29;68.32;102939.41;4988340;28;20409;-62
2021/12/20 06:20:50;;;;;;;17.58;2.40;;;;;;;5.27;67.67;102935.91;4989649;28;20334;-62
2021/12/20 06:23:15;;;;;;;17.05;2.22;;;;;;;5.25;67.49;102934.97;4988917;28;20026;-62
2021/12/20 06:25:40;;;;;;;13.48;2.38;;;;;;;5.27;66.88;102936.75;4987979;28;20066;-61
2021/12/20 06:28:06;;;;;;;12.77;2.22;;;;;;;5.28;66.90;102938.53;4993862;28;20116;-62
2021/12/20 06:30:31;;;;;;;9.02;1.92;;;;;;;5.28;65.75;102933.31;5005304;28;20037;-63
2021/12/20 06:32:56;;;;;;;12.63;1.90;;;;;;;5.28;66.18;102933.31;4999479;28;20017;-62
2021/12/20 06:35:22;;;;;;;12.25;2.65;;;;;;;5.32;66.68;102939.47;5008754;28;20032;-62
2021/12/20 06:37:58;;;;;;;9.48;2.30;;;;;;;5.31;66.92;102932.50;5007463;28;20038;-62
2021/12/20 06:40:23;;;;;;;7.90;1.50;;;;;;;5.31;66.86;102938.63;5008657;28;20030;-58
2021/12/20 06:42:49;;;;;;;14.73;2.35;;;;;;;5.28;67.33;102935.94;5007476;28;20277;-63
2021/12/20 06:45:14;;;;;;;18.23;2.15;;;;;;;5.26;65.98;102940.22;5007721;28;20022;-61
2021/12/20 06:47:40;;;;;;;19.02;2.95;;;;;;;5.25;66.22;102948.94;4990908;28;20022;-57
2021/12/20 06:50:06;;;;;;;10.75;1.92;;;;;;;5.29;66.00;102950.75;5006281;28;20111;-60
2021/12/20 06:52:31;;;;;;;10.07;1.80;;;;;;;5.26;66.77;102940.22;5007189;28;20470;-61
2021/12/20 06:54:56;;;;;;;15.57;2.17;;;;;;;5.25;66.63;102937.59;4989968;28;20495;-60
2021/12/20 06:57:22;;;;;;;11.60;2.15;;;;;;;5.20;66.58;102947.94;5008022;28;20145;-58
2021/12/20 06:59:47;;;;;;;8.70;1.70;;;;;;;5.25;67.13;102955.88;5006444;28;20109;-60
2021/12/20 07:02:13;;;;;;;13.80;1.90;;;;;;;5.28;66.89;102948.09;5008602;28;20033;-61
2021/12/20 07:04:38;;;;;;;14.02;2.17;;;;;;;5.27;66.38;102949.84;4988933;28;20045;-61
2021/12/20 07:07:03;;;;;;;14.63;2.00;;;;;;;5.30;66.83;102947.28;4987507;28;20925;-61
2021/12/20 07:09:29;;;;;;;14.98;2.28;;;;;;;5.25;67.17;102941.09;5007434;28;20030;-61
2021/12/20 07:11:55;;;;;;;10.25;1.80;;;;;;;5.17;67.86;102945.25;5007768;28;20053;-62
2021/12/20 07:14:20;;;;;;;11.68;1.70;;;;;;;5.23;67.68;102953.22;4990382;28;20028;-61
2021/12/20 07:16:45;;;;;;;9.65;1.73;;;;;;;5.22;67.85;102950.59;5007777;28;20034;-60
2021/12/20 07:19:11;;;;;;;12.52;1.70;;;;;;;5.19;67.98;102948.78;5008202;28;20469;-60
2021/12/20 07:21:36;;;;;;;9.23;1.70;;;;;;;5.15;68.56;102945.22;5007557;28;20539;-56
2021/12/20 07:24:02;;;;;;;10.98;1.80;;;;;;;5.17;68.84;102955.69;5007725;28;20086;-58
2021/12/20 07:26:27;;;;;;;10.18;3.13;;;;;;;5.13;69.43;102951.25;5005125;28;20062;-59
2021/12/20 07:28:52;;;;;;;10.70;1.77;;;;;;;5.13;69.94;102952.16;5006788;28;20033;-60
2021/12/20 07:31:19;;;;;;;14.98;1.88;;;;;;;5.14;69.64;102950.41;5006225;28;20056;-60
2021/12/20 07:33:45;;;;;;;12.55;2.38;;;;;;;5.13;69.49;102946.03;5003692;28;20117;-60
2021/12/20 07:36:14;;;;;;;7.88;1.88;;;;;;;5.10;69.57;102948.56;4975916;28;20121;-60
2021/12/20 07:38:39;;;;;;;14.40;2.63;;;;;;;5.05;69.85;102951.97;4988292;28;20062;-61
2021/12/20 07:41:04;;;;;;;7.88;1.80;;;;;;;5.06;69.82;102945.88;5005586;28;20033;-61
2021/12/20 07:43:30;;;;;;;15.95;2.40;;;;;;;5.02;69.68;102951.88;5007517;28;20538;-59
2021/12/20 07:45:55;;;;;;;16.65;2.35;;;;;;;5.03;69.64;102956.25;5003492;28;20033;-60
2021/12/20 07:48:21;;;;;;;10.15;2.05;;;;;;;5.00;70.18;102953.56;4986805;28;20033;-62
2021/12/20 07:50:47;;;;;;;12.07;2.22;;;;;;;5.06;70.51;102951.09;4986983;28;20374;-62
2021/12/20 07:53:13;;;;;;;9.82;1.85;;;;;;;5.04;70.13;102960.66;4987742;28;20026;-60
2021/12/20 07:55:39;;;;;;;10.50;1.95;;;;;;;5.13;70.16;102962.59;4970722;28;20096;-62
2021/12/20 07:58:04;;;;;;;10.88;1.95;;;;;;;5.17;69.32;102960.94;4987613;28;20475;-60
2021/12/20 08:00:30;;;;;;;12.88;2.25;;;;;;;5.10;69.42;102964.25;4987969;28;20030;-60
2021/12/20 08:02:56;;;;;;;10.88;1.70;;;;;;;5.10;69.67;102948.56;4987870;28;20029;-59
2021/12/20 08:05:23;;;;;;;14.02;2.35;;;;;;;5.09;69.77;102957.25;4999023;28;20075;-60
2021/12/20 08:07:50;;;;;;;13.07;2.08;;;;;;;5.07;70.22;102959.84;5005534;28;20037;-60
2021/12/20 08:10:19;;;;;;;11.57;2.40;;;;;;;5.05;70.10;102967.66;5005010;28;20045;-62
2021/12/20 08:12:45;;;;;;;;;;;;;;;5.03;70.50;102958.88;5004866;28;20065;-61
2021/12/20 08:15:11;;;;;;;22.45;2.75;;;;;;;5.03;70.59;102963.25;5002780;28;20367;-61
2021/12/20 08:17:36;;;;;;;10.27;2.30;;;;;;;5.01;70.70;102968.44;5003532;28;20038;-62
2021/12/20 08:20:03;;;;;;;13.77;2.55;;;;;;;5.03;71.19;102969.31;5007723;28;20120;-60
2021/12/20 08:22:29;;;;;;;11.68;3.08;;;;;;;5.04;71.02;102971.13;5012082;28;20060;-61
2021/12/20 08:24:54;;;;;;;11.80;2.83;;;;;;;5.08;70.98;102968.56;5012894;28;20018;-61
2021/12/20 08:27:19;;;;;;;16.33;2.97;;;;;;;5.12;70.55;102973.88;5012775;28;20052;-65
2021/12/20 08:29:45;;;;;;;17.15;2.92;;;;;;;5.11;69.83;102976.47;5012197;28;20010;-61
2021/12/20 08:32:10;;;;;;;17.70;3.42;;;;;;;5.13;69.68;102980.91;5013080;28;20392;-61
2021/12/20 08:34:35;;;;;;;19.73;4.20;;;;;;;5.15;70.04;102989.63;5011757;28;20104;-62
2021/12/20 08:37:01;;;;;;;15.50;2.67;;;;;;;5.12;70.40;102983.47;5009098;28;20042;-63
2021/12/20 08:39:27;;;;;;;16.42;2.70;;;;;;;5.12;71.53;102981.72;5012602;28;20026;-62
2021/12/20 08:41:53;;;;;;;18.80;2.83;;;;;;;5.14;70.64;102984.38;5010606;28;20377;-62
2021/12/20 08:44:19;;;;;;;11.82;3.58;;;;;;;5.11;70.10;102981.69;5012118;28;20388;-59
2021/12/20 08:46:44;;;;;;;15.30;2.47;;;;;;;5.15;70.22;102976.56;5012828;28;20184;-62
2021/12/20 08:49:09;;;;;;;28.23;2.95;;;;;;;5.27;69.60;102982.94;5010653;28;20029;-61
2021/12/20 08:51:35;;;;;;;13.73;3.13;;;;;;;5.21;69.65;102983.66;5012431;28;20026;-61
2021/12/20 08:54:01;;;;;;;18.35;2.45;;;;;;;5.17;70.44;102981.84;5011773;28;20030;-61
2021/12/20 08:56:26;;;;;;;16.80;2.60;;;;;;;5.24;69.94;102983.75;4995001;28;20396;-61
2021/12/20 08:58:51;;;;;;;16.23;1.75;;;;;;;5.25;69.38;102988.16;5010471;28;20030;-60
2021/12/20 09:01:17;;;;;;;13.88;1.75;;;;;;;5.25;70.23;102990.75;4993189;28;20014;-63
2021/12/20 09:03:44;;;;;;;18.67;2.13;;;;;;;5.28;70.28;102990.84;5012648;28;20052;-64
2021/12/20 09:06:10;;;;;;;16.20;2.50;;;;;;;5.28;70.82;102996.06;5010300;28;20056;-63
2021/12/20 09:08:35;;;;;;;10.43;2.15;;;;;;;5.25;70.54;102998.59;4994730;28;20404;-63
2021/12/20 09:11:01;;;;;;;10.35;2.08;;;;;;;5.33;70.49;102996.16;4994212;28;20469;-64
2021/12/20 09:13:26;;;;;;;17.35;2.28;;;;;;;5.33;70.42;102997.88;5012319;28;20512;-61
2021/12/20 09:15:52;;;;;;;15.70;2.88;;;;;;;5.34;70.47;102999.66;4994802;28;20472;-60
2021/12/20 09:18:18;;;;;;;8.77;2.05;;;;;;;5.40;70.82;102999.78;5010763;28;20030;-60
2021/12/20 09:20:43;;;;;;;13.82;3.45;;;;;;;5.44;70.99;102999.00;5006339;28;20065;-61
2021/12/20 09:23:11;;;;;;;12.45;2.72;;;;;;;5.42;71.13;103004.19;4995480;28;20026;-60
2021/12/20 09:25:41;;;;;;;15.02;3.40;;;;;;;5.48;71.13;103000.84;5009144;28;20027;-61
2021/12/20 09:28:10;;;;;;;20.02;3.58;;;;;;;5.44;71.27;103005.13;5004220;28;20022;-61
2021/12/20 09:30:36;;;;;;;18.15;3.40;;;;;;;5.49;71.48;103007.84;5010894;28;20477;-62
2021/12/20 09:33:04;;;;;;;13.57;2.72;;;;;;;5.49;71.60;103006.97;5009231;28;20084;-62
2021/12/20 09:35:29;;;;;;;10.48;2.20;;;;;;;5.51;71.79;102997.44;5000690;28;20030;-61
2021/12/20 09:37:54;;;;;;;7.55;1.67;;;;;;;5.61;71.31;102999.41;5003434;28;20116;-60
2021/12/20 09:40:33;;;;;;;15.32;2.15;;;;;;;5.54;71.49;103007.97;5009161;28;20032;-61
2021/12/20 09:43:01;;;;;;;17.55;2.30;;;;;;;5.55;71.42;103010.59;5007016;28;20448;-61
2021/12/20 09:45:27;;;;;;;8.43;2.22;;;;;;;5.51;72.06;103019.22;5008197;28;20026;-60
2021/12/20 09:47:53;;;;;;;16.58;3.05;;;;;;;5.50;71.93;103011.31;5008464;28;20018;-61
2021/12/20 09:50:18;;;;;;;17.27;2.20;;;;;;;5.56;71.69;103014.09;5007430;28;20528;-61
2021/12/20 09:52:45;;;;;;;17.10;2.50;;;;;;;5.56;71.87;103017.59;5006754;28;20045;-60
2021/12/20 09:55:13;;;;;;;8.30;1.80;;;;;;;5.69;71.24;103017.88;4976755;28;20061;-60
2021/12/20 09:57:41;;;;;;;9.80;2.40;;;;;;;5.73;71.88;103016.19;5009103;28;20080;-60
2021/12/20 10:00:07;;;;;;;10.13;2.10;;;;;;;5.81;72.12;103014.63;5005582;28;20030;-61
2021/12/20 10:02:33;;;;;;;17.80;3.78;;;;;;;5.89;71.61;103013.06;5001568;28;20409;-63
2021/12/20 10:04:58;;;;;;;9.70;2.45;;;;;;;5.99;71.06;103008.88;5004859;28;20014;-61
2021/12/20 10:07:25;;;;;;;12.23;2.10;;;;;;;6.11;70.23;103013.50;5007896;28;20022;-61
2021/12/20 10:09:51;;;;;;;9.70;1.88;;;;;;;6.11;70.02;103007.41;5008752;28;20064;-62
2021/12/20 10:12:27;;;;;;;14.43;2.17;;;;;;;6.13;69.48;103005.69;4988932;28;20042;-61
2021/12/20 10:15:03;;;;;;;17.10;2.42;;;;;;;6.23;69.13;103004.16;5008714;28;20076;-61
2021/12/20 10:17:32;;;;;;;13.85;2.10;;;;;;;6.34;67.92;103017.44;5008321;28;20034;-61
2021/12/20 10:20:36;;;;;;;9.23;1.80;;;;;;;6.49;67.57;103017.72;5007601;28;20543;-61
2021/12/20 10:23:27;;;;;;;10.55;1.92;;;;;;;6.48;67.89;103013.34;4938145;29;20149;-61
2021/12/20 10:26:00;;;;;;;16.92;3.53;;;;;;;6.51;67.18;103012.53;4933789;29;20039;-63
2021/12/20 10:28:32;;;;;;;7.35;1.90;;;;;;;6.60;67.30;103020.56;4989288;28;20046;-65
2021/12/20 10:31:00;;;;;;;10.85;2.55;;;;;;;6.49;66.77;103017.72;5008239;28;20057;-64
2021/12/20 10:33:26;;;;;;;9.97;1.93;;;;;;;6.35;67.85;103016.59;5006339;28;20129;-65
2021/12/20 10:35:54;;;;;;;8.75;1.33;;;;;;;6.43;67.26;103017.63;5007567;28;20108;-62
2021/12/20 10:38:30;;;;;;;8.85;1.30;;;;;;;6.42;67.67;103010.63;5008492;28;20030;-62
2021/12/20 10:41:20;;;;;;;10.23;2.17;;;;;;;6.41;67.38;103014.09;5008391;28;20365;-62
2021/12/20 10:43:55;;;;;;;9.85;1.90;;;;;;;6.38;68.42;103017.53;5003576;28;20124;-63
2021/12/20 10:46:22;;;;;;;12.55;2.47;;;;;;;6.32;68.78;103015.69;5007753;28;20341;-60
2021/12/20 10:48:51;;;;;;;11.63;2.38;;;;;;;6.50;68.40;103021.25;5007752;28;20175;-61
2021/12/20 10:51:22;;;;;;;8.48;1.85;;;;;;;6.56;68.38;103024.84;4998667;28;20476;-61
2021/12/20 10:53:57;;;;;;;12.85;2.00;;;;;;;6.52;68.65;103015.19;4996831;28;20089;-61
2021/12/20 10:56:22;;;;;;;10.15;2.08;;;;;;;6.43;69.07;103017.63;4998546;28;20381;-61
2021/12/20 10:58:47;;;;;;;7.85;1.30;;;;;;;6.46;68.67;103022.91;5000215;28;20030;-64
2021/12/20 11:04:24;;;;;;;7.43;2.00;;;;;;;6.35;69.52;103013.97;5005839;28;20091;-63
2021/12/20 11:09:26;;;;;;;13.18;1.77;;;;;;;6.12;68.77;103012.69;5004139;28;20078;-62
2021/12/20 11:11:54;;;;;;;11.35;1.60;;;;;;;6.17;69.66;103012.78;5003680;28;20042;-61
2021/12/20 11:14:23;;;;;;;6.03;1.05;;;;;;;6.10;64.88;103003.91;5007540;28;20033;-62
2021/12/20 11:16:51;;;;;;;2.85;0.65;;;;;;;6.24;63.74;103006.81;5006205;28;20057;-62
2021/12/20 11:19:24;;;;;;;4.68;0.90;;;;;;;6.44;61.09;103006.28;5006632;28;20033;-61
2021/12/20 11:22:24;;;;;;;5.40;0.88;;;;;;;6.44;61.28;103011.50;5006685;28;20109;-61
2021/12/20 11:24:55;;;;;;;6.18;1.10;;;;;;;6.43;63.34;103007.13;4992625;28;20133;-62
2021/12/20 11:27:53;;;;;;;4.68;1.40;;;;;;;6.49;65.14;103006.38;5007309;28;20033;-62
2021/12/20 11:30:21;;;;;;;7.67;1.47;;;;;;;6.54;66.13;103009.97;4990805;28;20041;-62
2021/12/20 11:32:47;;;;;;;10.02;1.38;;;;;;;6.62;66.19;103002.25;5007251;28;20022;-60
2021/12/20 11:35:18;;;;;;;14.48;1.85;;;;;;;6.86;65.20;102998.28;5007695;28;20121;-61
2021/12/20 11:37:44;;;;;;;6.10;1.42;;;;;;;6.65;64.96;102997.94;5004966;28;20041;-63
2021/12/20 11:40:11;;;;;;;6.93;1.50;;;;;;;6.38;66.29;103006.19;4994964;28;20453;-60
2021/12/20 11:42:37;;;;;;;5.93;1.42;;;;;;;6.41;66.45;103001.00;5007089;28;20084;-63
2021/12/20 11:45:04;;;;;;;4.57;1.40;;;;;;;6.45;66.39;102998.44;5006668;28;20034;-59
2021/12/20 11:47:57;;;;;;;8.82;2.08;;;;;;;6.34;66.22;102999.09;5007536;28;20425;-59